Time;durP1;ratioP1;P1;durP2;ratioP2;P2;SDS_P1;SDS_P2;PMS_P1;PMS_P2;Temp;Humidity;BMP_temperature;BMP_pressure;BME280_temperature;BME280_humidity;BME280_pressure;Samples;Min_cycle;Max_cycle;Signal;HPM_P1;HPM_P2
2022/09/29 03:01:58;;;;;;;0.60;0.60;;;10.80;85.50;;;;;;5418076;23;20508;-77
2022/09/29 03:04:27;;;;;;;0.70;0.70;;;10.80;85.20;;;;;;4939044;29;20451;-77
2022/09/29 03:06:54;;;;;;;0.60;0.60;;;10.90;85.00;;;;;;4939032;29;20448;-78
2022/09/29 03:09:21;;;;;;;0.80;0.67;;;10.90;84.90;;;;;;4938986;29;20464;-77
2022/09/29 03:11:48;;;;;;;0.70;0.70;;;11.00;84.70;;;;;;4938517;29;20467;-77
2022/09/29 03:14:14;;;;;;;0.70;0.70;;;11.00;84.50;;;;;;4939976;29;20966;-77
2022/09/29 03:16:41;;;;;;;0.70;0.70;;;11.10;84.10;;;;;;4938508;29;20451;-78
2022/09/29 03:19:10;;;;;;;0.60;0.60;;;11.10;83.90;;;;;;4938719;29;20538;-78
2022/09/29 03:21:36;;;;;;;0.70;0.60;;;11.10;83.90;;;;;;4938507;29;20495;-78
2022/09/29 03:24:04;;;;;;;0.80;0.80;;;11.00;83.70;;;;;;4938389;29;20487;-78
2022/09/29 03:26:31;;;;;;;0.70;0.60;;;11.10;83.60;;;;;;4937904;29;20460;-78
2022/09/29 03:28:59;;;;;;;0.63;0.60;;;11.10;83.60;;;;;;4938537;29;20463;-78
2022/09/29 03:31:26;;;;;;;1.00;0.63;;;11.00;83.60;;;;;;4938159;29;21122;-78
2022/09/29 03:33:52;;;;;;;0.60;0.60;;;10.90;83.60;;;;;;4938746;29;20459;-78
2022/09/29 03:36:20;;;;;;;0.60;0.60;;;10.90;83.80;;;;;;4938671;29;20456;-78
2022/09/29 03:38:47;;;;;;;0.60;0.60;;;10.90;83.50;;;;;;4938699;29;20460;-78
2022/09/29 03:41:14;;;;;;;0.70;0.60;;;10.90;83.40;;;;;;4938207;29;20492;-76
2022/09/29 03:43:41;;;;;;;0.60;0.60;;;10.80;83.50;;;;;;4938405;29;20456;-77
2022/09/29 03:46:08;;;;;;;0.60;0.60;;;10.80;83.10;;;;;;4938557;29;20460;-77
2022/09/29 03:48:34;;;;;;;1.23;0.60;;;10.80;82.90;;;;;;4938293;29;20447;-77
2022/09/29 03:51:02;;;;;;;0.60;0.50;;;10.90;82.70;;;;;;4938182;29;20546;-77
2022/09/29 03:53:30;;;;;;;0.70;0.70;;;10.80;82.70;;;;;;4938015;29;20460;-77
2022/09/29 03:55:57;;;;;;;0.60;0.60;;;10.80;82.40;;;;;;4938028;29;20448;-77
2022/09/29 03:58:24;;;;;;;0.63;0.60;;;10.70;82.40;;;;;;4937715;29;20455;-77
2022/09/29 04:00:50;;;;;;;0.80;0.80;;;10.70;82.30;;;;;;4937626;29;20514;-77
2022/09/29 04:03:17;;;;;;;0.60;0.60;;;10.60;82.10;;;;;;4937966;29;20436;-77
2022/09/29 04:05:45;;;;;;;0.63;0.63;;;10.60;82.30;;;;;;4937548;29;20958;-77
2022/09/29 04:08:11;;;;;;;0.80;0.80;;;10.50;82.00;;;;;;4937807;29;20455;-77
2022/09/29 04:10:40;;;;;;;0.63;0.60;;;10.40;82.30;;;;;;4937411;29;20815;-77
2022/09/29 04:13:08;;;;;;;0.70;0.70;;;10.40;82.70;;;;;;4937763;29;20460;-77
2022/09/29 04:15:35;;;;;;;0.77;0.63;;;10.30;82.90;;;;;;4937706;29;20456;-77
2022/09/29 04:18:01;;;;;;;0.70;0.70;;;10.30;82.80;;;;;;4937361;29;20448;-77
2022/09/29 04:20:28;;;;;;;0.70;0.70;;;10.30;82.80;;;;;;4937471;29;20459;-77
2022/09/29 04:22:55;;;;;;;1.30;0.77;;;10.30;82.80;;;;;;4937574;29;20452;-77
2022/09/29 04:25:21;;;;;;;0.60;0.60;;;10.20;83.10;;;;;;4937446;29;20448;-77
2022/09/29 04:27:50;;;;;;;0.60;0.60;;;10.20;82.90;;;;;;4937113;29;20834;-77
2022/09/29 04:30:17;;;;;;;0.60;0.60;;;10.30;82.60;;;;;;4937371;29;20461;-77
2022/09/29 04:32:44;;;;;;;0.80;0.80;;;10.30;82.40;;;;;;4937342;29;20471;-77
2022/09/29 04:35:11;;;;;;;0.83;0.83;;;10.30;82.40;;;;;;4937002;29;20829;-77
2022/09/29 04:37:37;;;;;;;0.93;0.80;;;10.30;82.30;;;;;;4936510;29;20447;-77
2022/09/29 04:40:05;;;;;;;0.70;0.70;;;10.20;82.30;;;;;;4937204;29;20452;-77
2022/09/29 04:42:32;;;;;;;0.80;0.80;;;10.20;82.60;;;;;;4937030;29;20491;-77
2022/09/29 04:45:00;;;;;;;0.80;0.70;;;10.20;82.40;;;;;;4937159;29;20499;-77
2022/09/29 04:47:27;;;;;;;0.77;0.77;;;10.20;82.20;;;;;;4936693;29;20827;-77
2022/09/29 04:49:54;;;;;;;0.80;0.80;;;10.10;82.10;;;;;;4937064;29;20452;-77
2022/09/29 04:52:20;;;;;;;0.80;0.80;;;9.90;82.20;;;;;;4936912;29;20471;-77
2022/09/29 04:54:47;;;;;;;0.70;0.70;;;9.90;82.40;;;;;;4936736;29;20950;-77
2022/09/29 04:57:14;;;;;;;0.90;0.90;;;9.80;82.50;;;;;;4936967;29;20455;-77
2022/09/29 04:59:41;;;;;;;0.90;0.90;;;9.80;82.70;;;;;;4937356;29;20455;-77
2022/09/29 05:02:09;;;;;;;0.90;0.80;;;9.80;82.60;;;;;;4936414;29;21003;-77
2022/09/29 05:04:35;;;;;;;0.73;0.73;;;9.80;82.70;;;;;;4936730;29;20789;-77
2022/09/29 05:07:02;;;;;;;0.90;0.80;;;9.80;82.60;;;;;;4936904;29;20452;-77
2022/09/29 05:09:29;;;;;;;0.80;0.80;;;9.80;82.70;;;;;;4936824;29;20456;-76
2022/09/29 05:12:49;;;;;;;1.10;1.10;;;9.80;82.40;;;;;;4936838;29;20464;-77
2022/09/29 05:15:17;;;;;;;0.70;0.70;;;9.80;82.60;;;;;;4924558;29;20468;-77
2022/09/29 05:17:45;;;;;;;1.10;1.10;;;9.70;82.70;;;;;;4937155;29;20459;-77
2022/09/29 05:20:12;;;;;;;2.33;2.23;;;9.80;82.50;;;;;;4937102;29;20455;-77
2022/09/29 05:22:39;;;;;;;2.17;2.07;;;9.70;82.70;;;;;;4937473;29;20491;-77
2022/09/29 05:25:07;;;;;;;1.50;1.40;;;9.70;83.10;;;;;;4937327;29;20511;-77
2022/09/29 05:27:34;;;;;;;1.80;1.70;;;9.80;82.90;;;;;;4937120;29;20459;-77
2022/09/29 05:30:01;;;;;;;1.60;1.50;;;9.80;82.90;;;;;;4936623;29;20479;-77
2022/09/29 05:32:29;;;;;;;1.53;1.43;;;9.80;82.70;;;;;;4936085;29;21002;-77
2022/09/29 05:34:58;;;;;;;1.67;1.57;;;9.90;82.70;;;;;;4936241;29;20502;-77
2022/09/29 05:37:25;;;;;;;1.50;1.47;;;9.90;82.50;;;;;;4936393;29;20567;-77
2022/09/29 05:39:51;;;;;;;1.67;1.57;;;9.90;82.50;;;;;;4936373;29;20456;-77
2022/09/29 05:42:19;;;;;;;0.87;0.87;;;9.90;82.40;;;;;;4936259;29;20498;-77
2022/09/29 05:44:46;;;;;;;0.80;0.80;;;9.90;82.60;;;;;;4936262;29;20459;-77
2022/09/29 05:47:12;;;;;;;0.97;0.90;;;10.00;82.60;;;;;;4936261;29;20456;-77
2022/09/29 05:49:39;;;;;;;0.60;0.60;;;10.00;82.70;;;;;;4936267;29;20459;-77
2022/09/29 05:52:07;;;;;;;0.87;0.87;;;10.00;82.80;;;;;;4936308;29;20468;-77
2022/09/29 05:54:34;;;;;;;0.90;0.90;;;10.00;82.80;;;;;;4936587;29;20452;-77
2022/09/29 05:57:00;;;;;;;0.80;0.80;;;10.10;82.70;;;;;;4936025;29;20456;-77
2022/09/29 05:59:27;;;;;;;0.97;0.90;;;10.10;82.80;;;;;;4936299;29;20456;-77
2022/09/29 06:01:54;;;;;;;0.70;0.70;;;10.20;82.90;;;;;;4935945;29;20496;-77
2022/09/29 06:04:20;;;;;;;1.17;0.80;;;10.20;82.90;;;;;;4936278;29;20836;-77
2022/09/29 06:06:47;;;;;;;0.70;0.67;;;10.20;82.90;;;;;;4936429;29;20452;-77
2022/09/29 06:09:15;;;;;;;0.60;0.60;;;10.30;83.10;;;;;;4936173;29;20463;-77
2022/09/29 06:11:42;;;;;;;0.70;0.70;;;10.40;83.20;;;;;;4935919;29;20475;-77
2022/09/29 06:14:09;;;;;;;0.73;0.73;;;10.40;83.40;;;;;;4937107;29;20463;-77
2022/09/29 06:16:35;;;;;;;0.80;0.80;;;10.40;83.30;;;;;;4935959;29;20836;-77
2022/09/29 06:19:04;;;;;;;0.80;0.80;;;10.50;83.30;;;;;;4935918;29;20507;-77
2022/09/29 06:21:33;;;;;;;0.80;0.80;;;10.50;83.50;;;;;;4935769;29;20519;-77
2022/09/29 06:24:00;;;;;;;0.80;0.80;;;10.60;83.60;;;;;;4935880;29;20546;-77
2022/09/29 06:26:28;;;;;;;0.90;0.73;;;10.60;83.40;;;;;;4935990;29;20463;-77
2022/09/29 06:28:57;;;;;;;1.67;0.80;;;10.50;83.70;;;;;;4935544;29;20951;-77
2022/09/29 06:31:26;;;;;;;0.70;0.70;;;10.30;84.10;;;;;;4936083;29;20475;-76
2022/09/29 06:33:53;;;;;;;1.00;0.80;;;10.30;84.70;;;;;;4935825;29;20456;-77
2022/09/29 06:39:08;;;;;;;0.80;0.80;;;10.60;84.10;;;;;;4935504;29;20810;-77
2022/09/29 06:41:36;;;;;;;0.70;0.60;;;10.70;83.50;;;;;;4935605;29;20846;-77
2022/09/29 06:44:03;;;;;;;0.67;0.67;;;10.80;83.30;;;;;;4935387;29;20974;-77
2022/09/29 06:46:31;;;;;;;0.70;0.70;;;10.90;83.40;;;;;;4935764;29;20456;-77
2022/09/29 06:48:58;;;;;;;0.70;0.70;;;10.90;83.30;;;;;;4935688;29;20493;-77
2022/09/29 06:51:25;;;;;;;0.80;0.80;;;10.70;83.50;;;;;;4935619;29;20479;-77
2022/09/29 06:53:52;;;;;;;0.80;0.80;;;10.60;84.50;;;;;;4935655;29;20447;-77
2022/09/29 06:56:19;;;;;;;0.70;0.70;;;10.70;84.50;;;;;;4935681;29;20463;-77
2022/09/29 06:58:48;;;;;;;0.77;0.77;;;10.70;84.50;;;;;;4935632;29;20459;-77
2022/09/29 07:01:14;;;;;;;0.70;0.70;;;10.40;85.20;;;;;;4937317;29;20479;-77
2022/09/29 07:03:41;;;;;;;0.70;0.70;;;10.20;86.50;;;;;;4939012;29;20452;-77
2022/09/29 07:06:09;;;;;;;0.70;0.60;;;10.20;86.80;;;;;;4938964;29;20452;-77
2022/09/29 07:08:38;;;;;;;0.70;0.67;;;10.50;86.30;;;;;;4938917;29;20456;-77
2022/09/29 07:11:06;;;;;;;0.80;0.60;;;10.70;86.00;;;;;;4938838;29;20472;-77
2022/09/29 07:13:33;;;;;;;0.70;0.70;;;10.80;85.90;;;;;;4938875;29;20448;-77
2022/09/29 07:16:08;;;;;;;0.80;0.70;;;11.00;85.80;;;;;;4938724;29;20455;-77
2022/09/29 07:18:36;;;;;;;0.70;0.70;;;11.10;85.80;;;;;;4938841;29;20435;-77
2022/09/29 07:21:03;;;;;;;0.70;0.70;;;11.00;85.10;;;;;;4938627;29;20480;-77
2022/09/29 07:23:30;;;;;;;0.70;0.70;;;11.20;85.30;;;;;;4938633;29;20484;-77
2022/09/29 07:25:57;;;;;;;0.70;0.70;;;11.20;85.30;;;;;;4938664;29;20452;-77
2022/09/29 07:28:24;;;;;;;0.63;0.63;;;11.30;85.10;;;;;;4938586;29;20463;-77
2022/09/29 07:30:59;;;;;;;0.70;0.70;;;11.10;85.00;;;;;;4938171;29;21010;-77
2022/09/29 07:33:27;;;;;;;0.70;0.70;;;11.10;85.40;;;;;;4938742;29;20432;-77
2022/09/29 07:35:54;;;;;;;0.70;0.67;;;10.90;86.00;;;;;;4938493;29;20888;-77
2022/09/29 07:38:20;;;;;;;0.70;0.70;;;10.60;87.50;;;;;;4938410;29;20443;-77
2022/09/29 07:40:47;;;;;;;0.70;0.70;;;10.90;86.70;;;;;;4938265;29;20472;-77
2022/09/29 07:43:14;;;;;;;0.70;0.70;;;10.90;86.40;;;;;;4937913;29;21009;-77
2022/09/29 07:45:46;;;;;;;0.70;0.70;;;11.00;85.90;;;;;;4938177;29;20451;-77
2022/09/29 07:48:12;;;;;;;0.70;0.70;;;11.00;85.30;;;;;;4938395;29;20448;-77
2022/09/29 07:50:41;;;;;;;0.70;0.70;;;11.10;86.20;;;;;;4938135;29;20479;-77
2022/09/29 07:53:07;;;;;;;0.70;0.70;;;11.20;85.70;;;;;;4938800;29;20451;-77
2022/09/29 07:55:34;;;;;;;0.70;0.70;;;11.10;85.70;;;;;;4938662;29;20825;-77
2022/09/29 07:58:01;;;;;;;0.77;0.77;;;11.10;86.30;;;;;;4938307;29;20503;-77
2022/09/29 08:00:29;;;;;;;0.90;0.70;;;11.30;86.40;;;;;;4937933;29;20498;-76
2022/09/29 08:02:59;;;;;;;0.80;0.80;;;11.20;85.70;;;;;;4937568;29;20535;-75
2022/09/29 08:05:27;;;;;;;0.70;0.70;;;11.10;86.20;;;;;;4937896;29;20460;-76
2022/09/29 08:07:56;;;;;;;0.70;0.60;;;10.90;86.00;;;;;;4938381;29;20458;-76
2022/09/29 08:10:23;;;;;;;0.60;0.60;;;11.20;86.60;;;;;;4937746;29;20878;-76
2022/09/29 08:12:50;;;;;;;1.20;0.60;;;11.20;84.80;;;;;;4936671;29;20459;-76
2022/09/29 08:15:17;;;;;;;0.60;0.60;;;11.40;84.90;;;;;;4937485;29;20464;-76
2022/09/29 08:17:43;;;;;;;0.80;0.70;;;11.60;84.30;;;;;;4937322;29;20964;-76
2022/09/29 08:20:10;;;;;;;0.80;0.80;;;11.80;83.50;;;;;;4937330;29;20445;-76
2022/09/29 08:22:37;;;;;;;0.60;0.60;;;11.80;83.00;;;;;;4937449;29;20492;-76
2022/09/29 08:25:05;;;;;;;0.60;0.60;;;11.90;83.30;;;;;;4937521;29;20456;-76
2022/09/29 08:27:33;;;;;;;0.70;0.70;;;11.70;83.20;;;;;;4937429;29;20456;-76
2022/09/29 08:30:00;;;;;;;0.80;0.63;;;11.70;83.70;;;;;;4937362;29;20459;-76
2022/09/29 08:32:26;;;;;;;1.60;1.50;;;12.00;83.40;;;;;;4937034;29;20476;-76
2022/09/29 08:34:53;;;;;;;1.30;1.20;;;12.30;82.60;;;;;;4937298;29;20452;-76
2022/09/29 08:37:20;;;;;;;0.63;0.63;;;12.30;81.80;;;;;;4937281;29;20494;-76
2022/09/29 08:39:47;;;;;;;0.70;0.70;;;12.50;81.00;;;;;;4937265;29;20455;-76
2022/09/29 08:42:24;;;;;;;0.60;0.60;;;12.70;80.50;;;;;;4937133;29;20492;-76
2022/09/29 08:44:57;;;;;;;0.60;0.60;;;12.50;79.30;;;;;;4937172;29;20450;-76
2022/09/29 08:47:28;;;;;;;0.60;0.60;;;12.40;80.90;;;;;;4937159;29;20452;-76
2022/09/29 08:49:59;;;;;;;0.80;0.63;;;12.40;80.00;;;;;;4936794;29;20916;-76
2022/09/29 08:52:30;;;;;;;0.60;0.60;;;12.60;79.00;;;;;;4937021;29;20884;-76
2022/09/29 08:55:02;;;;;;;0.60;0.60;;;12.40;78.50;;;;;;4937004;29;20437;-76
2022/09/29 08:57:30;;;;;;;0.60;0.60;;;12.40;78.90;;;;;;4936990;29;20509;-76
2022/09/29 08:59:58;;;;;;;0.70;0.70;;;12.30;80.90;;;;;;4936893;29;20488;-76
2022/09/29 09:03:06;;;;;;;0.60;0.60;;;12.40;79.90;;;;;;4936498;29;20504;-76
2022/09/29 09:05:48;;;;;;;0.70;0.70;;;12.60;80.00;;;;;;4937005;29;20440;-76
2022/09/29 09:08:22;;;;;;;0.67;0.67;;;12.80;78.60;;;;;;4936996;29;20443;-74
2022/09/29 09:10:59;;;;;;;0.60;0.60;;;12.70;77.90;;;;;;4936867;29;20506;-74
2022/09/29 09:13:47;;;;;;;0.60;0.60;;;12.70;78.60;;;;;;4936892;29;20784;-74
2022/09/29 09:16:24;;;;;;;0.60;0.60;;;12.70;78.20;;;;;;4937880;29;20448;-74
2022/09/29 09:19:02;;;;;;;0.70;0.60;;;12.50;78.90;;;;;;4937509;29;20436;-74
2022/09/29 09:21:39;;;;;;;0.70;0.50;;;12.60;79.90;;;;;;4936617;29;20467;-73
2022/09/29 09:24:15;;;;;;;0.67;0.60;;;12.70;79.10;;;;;;4936312;29;20835;-75
2022/09/29 09:26:44;;;;;;;0.70;0.60;;;12.70;79.60;;;;;;4936580;29;20447;-76
2022/09/29 09:29:21;;;;;;;0.60;0.60;;;12.80;80.50;;;;;;4936488;29;20455;-76
2022/09/29 09:31:56;;;;;;;0.60;0.60;;;12.90;79.70;;;;;;4936424;29;20471;-75
2022/09/29 09:34:29;;;;;;;0.60;0.60;;;13.10;79.20;;;;;;4936217;29;20428;-75
2022/09/29 09:37:00;;;;;;;0.70;0.60;;;13.00;79.50;;;;;;4936683;29;20843;-77
2022/09/29 09:39:32;;;;;;;0.60;0.60;;;13.10;79.50;;;;;;4936157;29;20540;-74
2022/09/29 09:42:02;;;;;;;0.70;0.63;;;13.00;78.30;;;;;;4936028;29;20476;-75
2022/09/29 09:44:34;;;;;;;0.63;0.60;;;12.70;79.20;;;;;;4936645;29;20460;-75
2022/09/29 09:47:04;;;;;;;0.63;0.60;;;12.60;79.70;;;;;;4936365;29;20440;-75
2022/09/29 09:49:35;;;;;;;0.70;0.70;;;12.80;79.40;;;;;;4936381;29;20452;-75
2022/09/29 09:52:04;;;;;;;0.90;0.60;;;13.10;79.00;;;;;;4936126;29;20472;-75
2022/09/29 09:54:35;;;;;;;0.80;0.60;;;13.40;78.40;;;;;;4936352;29;20444;-76
2022/09/29 09:57:25;;;;;;;0.60;0.60;;;13.60;78.50;;;;;;4936178;29;20440;-77
2022/09/29 10:00:05;;;;;;;0.73;0.60;;;13.60;77.80;;;;;;4935844;29;20948;-76
2022/09/29 10:02:32;;;;;;;0.77;0.77;;;13.80;76.30;;;;;;4935773;29;20510;-75
2022/09/29 10:04:58;;;;;;;0.80;0.60;;;13.80;75.50;;;;;;4936101;29;20447;-76
2022/09/29 10:07:29;;;;;;;0.70;0.70;;;13.40;75.60;;;;;;4936095;29;20463;-76
2022/09/29 10:09:57;;;;;;;0.80;0.60;;;13.10;77.20;;;;;;4936691;29;20432;-76
2022/09/29 10:12:24;;;;;;;0.90;0.70;;;13.20;77.60;;;;;;4936018;29;20476;-76
2022/09/29 10:14:54;;;;;;;0.63;0.60;;;13.60;77.10;;;;;;4935998;29;20452;-76
2022/09/29 10:17:26;;;;;;;0.70;0.60;;;13.80;75.20;;;;;;4935979;29;20986;-76
2022/09/29 10:19:56;;;;;;;0.70;0.70;;;13.70;74.70;;;;;;4936150;29;20444;-76
2022/09/29 10:22:23;;;;;;;0.70;0.60;;;13.60;74.20;;;;;;4936301;29;20475;-76
2022/09/29 10:24:55;;;;;;;0.70;0.70;;;13.70;74.60;;;;;;4936674;29;20463;-76
2022/09/29 10:27:25;;;;;;;0.80;0.80;;;13.70;75.80;;;;;;4936044;29;20531;-76
2022/09/29 10:29:53;;;;;;;0.60;0.60;;;13.90;74.30;;;;;;4935921;29;21039;-75
2022/09/29 10:32:35;;;;;;;0.70;0.70;;;14.00;72.80;;;;;;4935842;29;20487;-76
2022/09/29 10:35:06;;;;;;;0.90;0.90;;;13.70;73.70;;;;;;4936276;29;20439;-75
2022/09/29 10:37:37;;;;;;;0.60;0.60;;;13.60;74.30;;;;;;4939504;29;20448;-75
2022/09/29 10:40:16;;;;;;;0.60;0.60;;;13.60;72.30;;;;;;4939173;29;20926;-75
2022/09/29 10:42:45;;;;;;;0.70;0.60;;;13.50;73.50;;;;;;4939271;29;20495;-75
2022/09/29 10:45:14;;;;;;;0.60;0.60;;;13.50;71.70;;;;;;4939411;29;20456;-75
2022/09/29 10:47:46;;;;;;;0.60;0.60;;;13.80;71.80;;;;;;4939312;29;20463;-75
2022/09/29 10:50:16;;;;;;;0.70;0.63;;;13.70;71.40;;;;;;4939366;29;20444;-75
2022/09/29 10:52:45;;;;;;;0.60;0.50;;;13.60;71.80;;;;;;4939155;29;20851;-75
2022/09/29 10:55:17;;;;;;;0.70;0.60;;;13.80;71.90;;;;;;4938917;29;20956;-75
2022/09/29 10:57:46;;;;;;;0.70;0.60;;;14.00;71.60;;;;;;4939180;29;20487;-75
2022/09/29 11:00:29;;;;;;;0.60;0.60;;;14.00;70.80;;;;;;4939118;29;20539;-75
2022/09/29 11:03:05;;;;;;;1.03;0.70;;;14.10;70.20;;;;;;4938648;29;20514;-74
2022/09/29 11:05:33;;;;;;;0.70;0.60;;;14.20;70.60;;;;;;4939830;29;20428;-75
2022/09/29 11:07:59;;;;;;;0.60;0.60;;;14.30;70.20;;;;;;4939001;29;20448;-76
2022/09/29 11:10:31;;;;;;;0.60;0.60;;;14.50;69.70;;;;;;4938967;29;20463;-76
2022/09/29 11:12:59;;;;;;;0.60;0.60;;;14.40;71.30;;;;;;4938832;29;20475;-75
2022/09/29 11:15:29;;;;;;;0.70;0.70;;;14.40;69.70;;;;;;4938763;29;20511;-76
2022/09/29 11:17:56;;;;;;;0.60;0.60;;;14.40;69.20;;;;;;4938781;29;20447;-76
2022/09/29 11:20:32;;;;;;;0.70;0.67;;;14.00;69.60;;;;;;4938741;29;20452;-76
2022/09/29 11:23:13;;;;;;;0.60;0.60;;;14.10;69.50;;;;;;4938679;29;20475;-76
2022/09/29 11:26:04;;;;;;;0.70;0.60;;;14.00;71.10;;;;;;4938693;29;20455;-75
2022/09/29 11:29:02;;;;;;;0.97;0.63;;;13.90;71.10;;;;;;4938575;29;20440;-75
2022/09/29 11:31:43;;;;;;;0.60;0.50;;;13.90;71.80;;;;;;4938474;29;20471;-75
2022/09/29 11:34:29;;;;;;;0.60;0.60;;;14.30;70.90;;;;;;4938356;29;20443;-74
2022/09/29 11:37:06;;;;;;;0.70;0.70;;;14.30;70.00;;;;;;4938496;29;20440;-75
2022/09/29 11:39:44;;;;;;;0.70;0.60;;;14.10;71.40;;;;;;4938487;29;20480;-76
2022/09/29 11:42:24;;;;;;;0.77;0.60;;;14.40;70.50;;;;;;4937988;29;20906;-76
2022/09/29 11:44:58;;;;;;;0.67;0.60;;;14.40;69.10;;;;;;4937932;29;21087;-76
2022/09/29 11:47:44;;;;;;;0.70;0.60;;;14.30;70.30;;;;;;4938012;29;20440;-76
2022/09/29 11:50:27;;;;;;;0.70;0.70;;;14.10;68.60;;;;;;4937969;29;20445;-76
2022/09/29 11:53:06;;;;;;;0.70;0.67;;;14.10;69.10;;;;;;4938214;29;20440;-75
2022/09/29 11:55:47;;;;;;;0.70;0.63;;;14.20;69.80;;;;;;4937886;29;20437;-76
2022/09/29 11:58:29;;;;;;;0.70;0.60;;;14.60;68.80;;;;;;4937736;29;20785;-76
2022/09/29 12:01:11;;;;;;;0.67;0.67;;;14.30;68.70;;;;;;4937611;29;20488;-76
2022/09/29 12:03:43;;;;;;;0.60;0.57;;;14.40;69.50;;;;;;4937524;29;20484;-76
2022/09/29 12:06:32;;;;;;;0.60;0.60;;;14.40;69.00;;;;;;4937563;29;20436;-75
2022/09/29 12:09:08;;;;;;;0.60;0.60;;;14.80;68.50;;;;;;4937803;29;20445;-75
2022/09/29 12:11:44;;;;;;;0.60;0.60;;;15.00;67.40;;;;;;4937433;29;20842;-75
2022/09/29 12:14:17;;;;;;;0.60;0.60;;;15.20;68.10;;;;;;4937762;29;20457;-73
2022/09/29 12:16:51;;;;;;;0.60;0.53;;;15.40;65.80;;;;;;4937713;29;20436;-73
2022/09/29 12:19:21;;;;;;;0.80;0.70;;;15.50;65.70;;;;;;4937693;29;20444;-73
2022/09/29 12:21:50;;;;;;;0.70;0.60;;;15.80;66.10;;;;;;4937555;29;20479;-73
2022/09/29 12:24:26;;;;;;;0.60;0.57;;;16.00;66.00;;;;;;4938410;29;20490;-74
2022/09/29 12:26:54;;;;;;;0.60;0.60;;;15.80;64.80;;;;;;4937600;29;20455;-75
2022/09/29 12:29:32;;;;;;;0.70;0.60;;;16.00;64.60;;;;;;4937473;29;20444;-75
2022/09/29 12:32:05;;;;;;;0.60;0.50;;;16.30;63.60;;;;;;4937376;29;20476;-74
2022/09/29 12:34:40;;;;;;;0.70;0.70;;;16.50;63.30;;;;;;4937055;29;20975;-75
2022/09/29 12:37:13;;;;;;;1.37;0.60;;;16.50;62.30;;;;;;4937019;29;20443;-75
2022/09/29 12:39:50;;;;;;;0.60;0.50;;;15.60;64.30;;;;;;4937257;29;20440;-75
2022/09/29 12:42:45;;;;;;;0.60;0.60;;;15.80;65.70;;;;;;4937100;29;20474;-74
2022/09/29 12:45:20;;;;;;;0.60;0.60;;;16.10;64.70;;;;;;4922310;29;20533;-74
2022/09/29 12:47:54;;;;;;;0.60;0.50;;;16.30;63.20;;;;;;4937132;29;20442;-74
2022/09/29 12:50:27;;;;;;;0.70;0.60;;;16.40;62.20;;;;;;4937145;29;20444;-75
2022/09/29 12:53:00;;;;;;;0.60;0.50;;;16.60;62.10;;;;;;4937512;29;20435;-75
2022/09/29 12:55:35;;;;;;;0.60;0.50;;;16.80;62.20;;;;;;4937537;29;20440;-74
2022/09/29 12:58:06;;;;;;;0.70;0.60;;;16.70;61.60;;;;;;4936408;29;20440;-75
2022/09/29 13:00:35;;;;;;;0.60;0.60;;;16.70;62.60;;;;;;4936549;29;20920;-74
2022/09/29 13:03:35;;;;;;;0.60;0.60;;;16.60;61.20;;;;;;4936513;29;20468;-74
2022/09/29 13:06:40;;;;;;;0.70;0.60;;;16.30;62.00;;;;;;4925960;29;20565;-75
2022/09/29 13:09:36;;;;;;;0.60;0.60;;;16.10;64.20;;;;;;4936818;29;20810;-74
2022/09/29 13:12:24;;;;;;;0.60;0.50;;;15.90;63.80;;;;;;4936683;29;20471;-74
2022/09/29 13:15:21;;;;;;;0.60;0.60;;;16.00;63.50;;;;;;4936708;29;20433;-74
2022/09/29 13:18:05;;;;;;;0.60;0.50;;;16.10;63.50;;;;;;4936571;29;20455;-75
2022/09/29 13:20:53;;;;;;;0.60;0.60;;;15.80;64.10;;;;;;4936613;29;20432;-74
2022/09/29 13:23:50;;;;;;;0.70;0.60;;;15.80;64.80;;;;;;4936145;29;20568;-74
2022/09/29 13:26:35;;;;;;;0.70;0.60;;;15.90;64.80;;;;;;4936340;29;20421;-74
2022/09/29 13:29:11;;;;;;;0.60;0.53;;;15.70;65.00;;;;;;4936535;29;20436;-75
2022/09/29 13:31:39;;;;;;;0.60;0.50;;;15.80;65.10;;;;;;4936428;29;20468;-75
2022/09/29 13:34:07;;;;;;;0.70;0.60;;;15.80;65.20;;;;;;4936451;29;20456;-75
2022/09/29 13:36:38;;;;;;;0.70;0.60;;;16.10;64.90;;;;;;4936344;29;20456;-74
2022/09/29 13:39:08;;;;;;;0.70;0.60;;;16.20;63.20;;;;;;4936337;29;20436;-75
2022/09/29 13:41:38;;;;;;;0.87;0.50;;;16.40;63.30;;;;;;4935936;29;20461;-75
2022/09/29 13:44:26;;;;;;;0.70;0.60;;;16.60;63.80;;;;;;4936205;29;20601;-75
2022/09/29 13:46:54;;;;;;;0.70;0.60;;;16.80;62.70;;;;;;4936266;29;20441;-74
2022/09/29 13:49:31;;;;;;;0.60;0.60;;;17.10;61.80;;;;;;4936179;29;20452;-75
2022/09/29 13:52:00;;;;;;;0.63;0.60;;;17.30;61.50;;;;;;4936123;29;20467;-75
2022/09/29 13:54:35;;;;;;;0.60;0.50;;;17.40;59.80;;;;;;4936219;29;20494;-75
2022/09/29 13:57:21;;;;;;;0.70;0.60;;;17.50;60.70;;;;;;4936283;29;20440;-75
2022/09/29 14:00:04;;;;;;;0.60;0.60;;;17.60;60.20;;;;;;4933948;29;20474;-75
2022/09/29 14:02:37;;;;;;;0.60;0.60;;;17.40;60.30;;;;;;4935752;29;20858;-75
2022/09/29 14:05:04;;;;;;;0.60;0.57;;;17.30;61.20;;;;;;4936030;29;20476;-75
2022/09/29 14:07:41;;;;;;;0.97;0.53;;;17.40;60.20;;;;;;4935999;29;20456;-74
2022/09/29 14:10:23;;;;;;;0.67;0.50;;;17.50;61.00;;;;;;4938318;29;20435;-76
2022/09/29 14:12:56;;;;;;;0.60;0.50;;;17.70;61.30;;;;;;4939936;29;20835;-74
2022/09/29 14:15:25;;;;;;;0.70;0.60;;;17.60;60.60;;;;;;4939988;29;20448;-74
2022/09/29 14:17:57;;;;;;;0.70;0.60;;;17.40;60.40;;;;;;4939572;29;20864;-74
2022/09/29 14:20:28;;;;;;;0.80;0.70;;;17.40;61.50;;;;;;4940310;29;20436;-74
2022/09/29 14:22:58;;;;;;;1.10;0.80;;;17.40;61.60;;;;;;4939512;29;20931;-74
2022/09/29 14:25:53;;;;;;;0.60;0.53;;;17.40;61.30;;;;;;4939625;29;20574;-74
2022/09/29 14:28:38;;;;;;;1.10;0.60;;;17.30;61.70;;;;;;4934235;29;20463;-74
2022/09/29 14:31:20;;;;;;;1.00;0.67;;;17.30;61.10;;;;;;4937432;29;21022;-74
2022/09/29 14:33:49;;;;;;;0.70;0.50;;;17.30;61.80;;;;;;4939603;29;20480;-74
2022/09/29 14:36:19;;;;;;;0.90;0.70;;;17.10;62.20;;;;;;4939225;29;20814;-74
2022/09/29 14:38:49;;;;;;;0.60;0.53;;;16.90;63.60;;;;;;4939270;29;20874;-74
2022/09/29 14:41:23;;;;;;;0.60;0.53;;;16.60;63.80;;;;;;4939415;29;20474;-74
2022/09/29 14:43:55;;;;;;;0.70;0.60;;;16.20;66.00;;;;;;4939409;29;20428;-75
2022/09/29 14:52:43;;;;;;;0.70;0.60;;;16.30;65.70;;;;;;4938999;29;20439;-75
2022/09/29 14:55:17;;;;;;;0.90;0.63;;;16.50;65.10;;;;;;4939311;29;20436;-75
2022/09/29 14:57:59;;;;;;;0.60;0.60;;;16.50;64.40;;;;;;4939178;29;20432;-75
2022/09/29 15:00:37;;;;;;;0.80;0.70;;;16.20;64.90;;;;;;4938878;29;20528;-75
2022/09/29 15:03:07;;;;;;;0.60;0.60;;;16.10;65.20;;;;;;4938993;29;20459;-75
2022/09/29 15:05:36;;;;;;;2.30;0.60;;;16.10;65.10;;;;;;4938905;29;20483;-75
2022/09/29 15:08:17;;;;;;;0.90;0.60;;;16.20;65.40;;;;;;4938615;29;20828;-74
2022/09/29 15:10:45;;;;;;;0.70;0.60;;;16.20;66.20;;;;;;4938818;29;20479;-74
2022/09/29 15:13:18;;;;;;;0.70;0.70;;;16.00;66.40;;;;;;4938887;29;20481;-75
2022/09/29 15:15:48;;;;;;;0.70;0.60;;;16.00;66.10;;;;;;4939923;29;20452;-75
2022/09/29 15:18:31;;;;;;;0.60;0.60;;;16.00;66.20;;;;;;4938555;29;20971;-75
2022/09/29 15:21:05;;;;;;;0.70;0.60;;;15.90;66.60;;;;;;4938414;29;20478;-72
2022/09/29 15:24:03;;;;;;;0.70;0.70;;;15.90;66.80;;;;;;4938849;29;20440;-73
2022/09/29 15:26:32;;;;;;;0.80;0.80;;;15.70;67.60;;;;;;4938772;29;20452;-73
2022/09/29 15:28:59;;;;;;;0.60;0.60;;;15.70;67.20;;;;;;4939819;29;20463;-73
2022/09/29 15:31:29;;;;;;;0.60;0.60;;;15.50;68.00;;;;;;4938489;29;20504;-72
2022/09/29 15:33:57;;;;;;;1.20;0.70;;;15.70;68.30;;;;;;4938462;29;20812;-72
2022/09/29 15:36:26;;;;;;;0.83;0.70;;;15.80;68.10;;;;;;4940972;29;20448;-72
2022/09/29 15:38:54;;;;;;;0.90;0.90;;;15.90;68.30;;;;;;4940038;29;20479;-72
2022/09/29 15:41:23;;;;;;;0.63;0.60;;;15.90;67.50;;;;;;4941030;29;20885;-73
2022/09/29 15:43:55;;;;;;;0.70;0.60;;;15.80;66.90;;;;;;4940230;29;20991;-73
2022/09/29 15:46:25;;;;;;;0.63;0.63;;;15.80;67.30;;;;;;4938842;29;20956;-73
2022/09/29 15:49:13;;;;;;;0.70;0.70;;;15.80;67.50;;;;;;4938418;29;20452;-73
2022/09/29 15:51:42;;;;;;;0.87;0.77;;;15.60;68.20;;;;;;4938348;29;20472;-72
2022/09/29 15:54:12;;;;;;;0.70;0.70;;;15.50;67.90;;;;;;4938224;29;20455;-72
2022/09/29 15:59:20;;;;;;;0.67;0.60;;;15.60;68.30;;;;;;4937598;29;20543;-72
2022/09/29 16:01:47;;;;;;;0.70;0.70;;;15.60;68.40;;;;;;4937673;29;20482;-72
2022/09/29 16:04:15;;;;;;;0.70;0.70;;;15.60;68.90;;;;;;4938594;29;20484;-72
2022/09/29 16:06:45;;;;;;;0.70;0.70;;;15.40;68.60;;;;;;4937614;29;21006;-72
2022/09/29 16:09:18;;;;;;;0.60;0.60;;;15.50;68.70;;;;;;4937917;29;20455;-73
2022/09/29 16:11:45;;;;;;;0.70;0.70;;;15.40;68.70;;;;;;4937963;29;20535;-72
2022/09/29 16:14:20;;;;;;;0.70;0.60;;;15.40;68.50;;;;;;4937819;29;20459;-72
2022/09/29 16:16:49;;;;;;;0.70;0.70;;;15.50;68.30;;;;;;4937734;29;20477;-73
2022/09/29 16:19:21;;;;;;;1.53;1.10;;;15.40;68.70;;;;;;4937711;29;20533;-72
2022/09/29 16:21:52;;;;;;;0.80;0.80;;;15.40;69.00;;;;;;4937626;29;20479;-73
2022/09/29 16:24:20;;;;;;;0.60;0.60;;;15.40;68.80;;;;;;4937624;29;20468;-72